sensor_id;sensor_type;location;lat;lon;timestamp;temperature;humidity
39315;DHT22;28703;44.412;11.918;2023-06-01T00:02:03;20.80;99.20
39315;DHT22;28703;44.412;11.918;2023-06-01T00:04:29;20.70;99.20
39315;DHT22;28703;44.412;11.918;2023-06-01T00:06:55;20.70;99.40
39315;DHT22;28703;44.412;11.918;2023-06-01T00:09:21;20.70;99.30
39315;DHT22;28703;44.412;11.918;2023-06-01T00:11:47;20.70;99.30
39315;DHT22;28703;44.412;11.918;2023-06-01T00:14:13;20.60;99.30
39315;DHT22;28703;44.412;11.918;2023-06-01T00:16:39;20.60;99.50
39315;DHT22;28703;44.412;11.918;2023-06-01T00:19:05;20.50;99.50
39315;DHT22;28703;44.412;11.918;2023-06-01T00:21:32;20.50;99.60
39315;DHT22;28703;44.412;11.918;2023-06-01T00:24:01;20.50;99.70
39315;DHT22;28703;44.412;11.918;2023-06-01T00:26:27;20.40;99.70
39315;DHT22;28703;44.412;11.918;2023-06-01T00:28:55;20.40;99.70
39315;DHT22;28703;44.412;11.918;2023-06-01T00:31:21;20.40;99.70
39315;DHT22;28703;44.412;11.918;2023-06-01T00:33:47;20.40;99.80
39315;DHT22;28703;44.412;11.918;2023-06-01T00:36:13;20.30;99.90
39315;DHT22;28703;44.412;11.918;2023-06-01T00:38:39;20.30;99.90
39315;DHT22;28703;44.412;11.918;2023-06-01T00:41:05;20.20;99.90
39315;DHT22;28703;44.412;11.918;2023-06-01T00:43:31;20.10;99.90
39315;DHT22;28703;44.412;11.918;2023-06-01T00:45:57;20.00;99.90
39315;DHT22;28703;44.412;11.918;2023-06-01T00:48:23;19.90;99.90
39315;DHT22;28703;44.412;11.918;2023-06-01T00:50:49;19.80;99.90
39315;DHT22;28703;44.412;11.918;2023-06-01T00:53:19;19.70;99.90
39315;DHT22;28703;44.412;11.918;2023-06-01T00:55:46;19.60;99.90
39315;DHT22;28703;44.412;11.918;2023-06-01T00:58:13;19.50;99.90
39315;DHT22;28703;44.412;11.918;2023-06-01T01:00:39;19.50;99.90
39315;DHT22;28703;44.412;11.918;2023-06-01T01:03:06;19.40;99.90
39315;DHT22;28703;44.412;11.918;2023-06-01T01:05:36;19.30;99.90
39315;DHT22;28703;44.412;11.918;2023-06-01T01:13:32;19.30;99.90
39315;DHT22;28703;44.412;11.918;2023-06-01T01:16:04;19.30;99.90
39315;DHT22;28703;44.412;11.918;2023-06-01T01:18:36;19.40;99.90
39315;DHT22;28703;44.412;11.918;2023-06-01T01:21:05;19.40;99.90
39315;DHT22;28703;44.412;11.918;2023-06-01T01:24:04;19.40;99.90
39315;DHT22;28703;44.412;11.918;2023-06-01T01:29:44;19.40;99.90
39315;DHT22;28703;44.412;11.918;2023-06-01T01:32:12;19.40;99.90
39315;DHT22;28703;44.412;11.918;2023-06-01T01:34:40;19.40;99.90
39315;DHT22;28703;44.412;11.918;2023-06-01T01:37:08;19.40;99.90
39315;DHT22;28703;44.412;11.918;2023-06-01T01:39:34;19.40;99.90
39315;DHT22;28703;44.412;11.918;2023-06-01T01:42:00;19.40;99.90
39315;DHT22;28703;44.412;11.918;2023-06-01T01:44:28;19.40;99.90
39315;DHT22;28703;44.412;11.918;2023-06-01T01:47:41;19.40;99.90
39315;DHT22;28703;44.412;11.918;2023-06-01T01:49:59;19.50;99.90
39315;DHT22;28703;44.412;11.918;2023-06-01T01:52:37;19.40;99.90
39315;DHT22;28703;44.412;11.918;2023-06-01T01:55:07;19.40;99.90
39315;DHT22;28703;44.412;11.918;2023-06-01T01:57:34;19.40;99.90
39315;DHT22;28703;44.412;11.918;2023-06-01T02:00:04;19.30;99.90
39315;DHT22;28703;44.412;11.918;2023-06-01T02:02:39;19.30;99.90
39315;DHT22;28703;44.412;11.918;2023-06-01T02:05:05;19.30;99.90
39315;DHT22;28703;44.412;11.918;2023-06-01T02:07:31;19.30;99.90
39315;DHT22;28703;44.412;11.918;2023-06-01T02:10:02;19.20;99.90
39315;DHT22;28703;44.412;11.918;2023-06-01T02:12:29;19.10;99.90
39315;DHT22;28703;44.412;11.918;2023-06-01T02:14:55;19.10;99.90
39315;DHT22;28703;44.412;11.918;2023-06-01T02:17:21;19.10;99.90
39315;DHT22;28703;44.412;11.918;2023-06-01T02:19:47;19.10;99.90
39315;DHT22;28703;44.412;11.918;2023-06-01T02:22:13;19.10;99.90
39315;DHT22;28703;44.412;11.918;2023-06-01T02:24:39;19.10;99.90
39315;DHT22;28703;44.412;11.918;2023-06-01T02:27:05;19.10;99.90
39315;DHT22;28703;44.412;11.918;2023-06-01T02:29:32;19.10;99.90
39315;DHT22;28703;44.412;11.918;2023-06-01T02:31:58;19.00;99.90
39315;DHT22;28703;44.412;11.918;2023-06-01T02:34:24;19.00;99.90
39315;DHT22;28703;44.412;11.918;2023-06-01T02:36:50;19.10;99.90
39315;DHT22;28703;44.412;11.918;2023-06-01T02:39:17;19.10;99.90
39315;DHT22;28703;44.412;11.918;2023-06-01T02:41:44;19.10;99.90
39315;DHT22;28703;44.412;11.918;2023-06-01T02:44:09;19.10;99.90
39315;DHT22;28703;44.412;11.918;2023-06-01T02:46:35;19.00;99.90
39315;DHT22;28703;44.412;11.918;2023-06-01T02:49:01;19.00;99.90
39315;DHT22;28703;44.412;11.918;2023-06-01T02:51:27;18.90;99.90
39315;DHT22;28703;44.412;11.918;2023-06-01T02:54:06;18.90;99.90
39315;DHT22;28703;44.412;11.918;2023-06-01T02:56:32;18.90;99.90
39315;DHT22;28703;44.412;11.918;2023-06-01T02:59:18;18.80;99.90
39315;DHT22;28703;44.412;11.918;2023-06-01T03:01:49;18.80;99.90
39315;DHT22;28703;44.412;11.918;2023-06-01T03:04:15;18.70;99.90
39315;DHT22;28703;44.412;11.918;2023-06-01T03:06:41;18.70;99.90
39315;DHT22;28703;44.412;11.918;2023-06-01T03:09:24;18.70;99.90
39315;DHT22;28703;44.412;11.918;2023-06-01T03:12:10;18.60;99.90
39315;DHT22;28703;44.412;11.918;2023-06-01T03:14:37;18.50;99.90
39315;DHT22;28703;44.412;11.918;2023-06-01T03:17:02;18.50;99.90
39315;DHT22;28703;44.412;11.918;2023-06-01T03:19:28;18.50;99.90
39315;DHT22;28703;44.412;11.918;2023-06-01T03:21:57;18.50;99.90
39315;DHT22;28703;44.412;11.918;2023-06-01T03:24:23;18.50;99.90
39315;DHT22;28703;44.412;11.918;2023-06-01T03:26:53;18.50;99.90
39315;DHT22;28703;44.412;11.918;2023-06-01T03:29:18;18.50;99.90
39315;DHT22;28703;44.412;11.918;2023-06-01T03:31:44;18.50;99.90
39315;DHT22;28703;44.412;11.918;2023-06-01T03:34:11;18.50;99.90
39315;DHT22;28703;44.412;11.918;2023-06-01T03:36:37;18.50;99.90
39315;DHT22;28703;44.412;11.918;2023-06-01T03:39:03;18.50;99.90
39315;DHT22;28703;44.412;11.918;2023-06-01T03:41:35;18.50;99.90
39315;DHT22;28703;44.412;11.918;2023-06-01T03:44:03;18.50;99.90
39315;DHT22;28703;44.412;11.918;2023-06-01T03:46:29;18.40;99.90
39315;DHT22;28703;44.412;11.918;2023-06-01T03:48:55;18.50;99.90
39315;DHT22;28703;44.412;11.918;2023-06-01T03:51:21;18.40;99.90
39315;DHT22;28703;44.412;11.918;2023-06-01T03:53:47;18.40;99.90
39315;DHT22;28703;44.412;11.918;2023-06-01T03:56:14;18.40;99.90
39315;DHT22;28703;44.412;11.918;2023-06-01T03:58:41;18.40;99.90
39315;DHT22;28703;44.412;11.918;2023-06-01T04:01:08;18.40;99.90
39315;DHT22;28703;44.412;11.918;2023-06-01T04:03:38;18.40;99.90
39315;DHT22;28703;44.412;11.918;2023-06-01T04:06:04;18.40;99.90
39315;DHT22;28703;44.412;11.918;2023-06-01T04:08:40;18.40;99.90
39315;DHT22;28703;44.412;11.918;2023-06-01T04:11:17;18.40;99.90
39315;DHT22;28703;44.412;11.918;2023-06-01T04:13:46;18.40;99.90
39315;DHT22;28703;44.412;11.918;2023-06-01T04:16:12;18.40;99.90
39315;DHT22;28703;44.412;11.918;2023-06-01T04:18:40;18.40;99.90
39315;DHT22;28703;44.412;11.918;2023-06-01T04:21:10;18.40;99.90
39315;DHT22;28703;44.412;11.918;2023-06-01T04:23:36;18.30;99.90
39315;DHT22;28703;44.412;11.918;2023-06-01T04:26:03;18.30;99.90
39315;DHT22;28703;44.412;11.918;2023-06-01T04:28:31;18.30;99.90
39315;DHT22;28703;44.412;11.918;2023-06-01T04:30:58;18.40;99.90
39315;DHT22;28703;44.412;11.918;2023-06-01T04:33:26;18.40;99.90
39315;DHT22;28703;44.412;11.918;2023-06-01T04:35:53;18.40;99.90
39315;DHT22;28703;44.412;11.918;2023-06-01T04:38:20;18.40;99.90
39315;DHT22;28703;44.412;11.918;2023-06-01T04:40:51;18.40;99.90
39315;DHT22;28703;44.412;11.918;2023-06-01T04:43:20;18.50;99.90
39315;DHT22;28703;44.412;11.918;2023-06-01T04:45:47;18.50;99.90
39315;DHT22;28703;44.412;11.918;2023-06-01T04:48:12;18.50;99.90
39315;DHT22;28703;44.412;11.918;2023-06-01T04:50:49;18.60;99.90
39315;DHT22;28703;44.412;11.918;2023-06-01T04:53:15;18.60;99.90
39315;DHT22;28703;44.412;11.918;2023-06-01T04:55:41;18.60;99.90
39315;DHT22;28703;44.412;11.918;2023-06-01T04:58:11;18.60;99.90
39315;DHT22;28703;44.412;11.918;2023-06-01T05:00:37;18.60;99.90
39315;DHT22;28703;44.412;11.918;2023-06-01T05:03:05;18.60;99.90
39315;DHT22;28703;44.412;11.918;2023-06-01T05:05:32;18.60;99.90
39315;DHT22;28703;44.412;11.918;2023-06-01T05:07:58;18.70;99.90
39315;DHT22;28703;44.412;11.918;2023-06-01T05:10:24;18.70;99.90
39315;DHT22;28703;44.412;11.918;2023-06-01T05:12:51;18.70;99.90
39315;DHT22;28703;44.412;11.918;2023-06-01T05:15:18;18.70;99.90
39315;DHT22;28703;44.412;11.918;2023-06-01T05:17:45;18.70;99.90
39315;DHT22;28703;44.412;11.918;2023-06-01T05:20:14;18.80;99.90
39315;DHT22;28703;44.412;11.918;2023-06-01T05:22:43;18.90;99.90
39315;DHT22;28703;44.412;11.918;2023-06-01T05:25:09;18.90;99.90
39315;DHT22;28703;44.412;11.918;2023-06-01T05:27:39;18.90;99.90
39315;DHT22;28703;44.412;11.918;2023-06-01T05:30:05;19.00;99.90
39315;DHT22;28703;44.412;11.918;2023-06-01T05:32:32;19.00;99.90
39315;DHT22;28703;44.412;11.918;2023-06-01T05:35:10;19.10;99.90
39315;DHT22;28703;44.412;11.918;2023-06-01T05:37:37;19.10;99.90
39315;DHT22;28703;44.412;11.918;2023-06-01T05:40:03;19.20;99.90
39315;DHT22;28703;44.412;11.918;2023-06-01T05:42:33;19.20;99.90
39315;DHT22;28703;44.412;11.918;2023-06-01T05:44:59;19.30;99.90
39315;DHT22;28703;44.412;11.918;2023-06-01T05:47:25;19.30;99.90
39315;DHT22;28703;44.412;11.918;2023-06-01T05:49:51;19.30;99.90
39315;DHT22;28703;44.412;11.918;2023-06-01T05:52:17;19.40;99.90
39315;DHT22;28703;44.412;11.918;2023-06-01T05:54:43;19.40;99.90
39315;DHT22;28703;44.412;11.918;2023-06-01T05:57:09;19.50;99.90
39315;DHT22;28703;44.412;11.918;2023-06-01T05:59:35;19.50;99.90
39315;DHT22;28703;44.412;11.918;2023-06-01T06:02:01;19.60;99.90
39315;DHT22;28703;44.412;11.918;2023-06-01T06:04:27;19.60;99.90
39315;DHT22;28703;44.412;11.918;2023-06-01T06:06:53;19.70;99.90
39315;DHT22;28703;44.412;11.918;2023-06-01T06:09:19;19.80;99.90
39315;DHT22;28703;44.412;11.918;2023-06-01T06:11:45;19.80;99.90
39315;DHT22;28703;44.412;11.918;2023-06-01T06:14:11;19.80;99.90
39315;DHT22;28703;44.412;11.918;2023-06-01T06:16:39;19.90;99.90
39315;DHT22;28703;44.412;11.918;2023-06-01T06:19:07;19.90;99.90
39315;DHT22;28703;44.412;11.918;2023-06-01T06:21:34;20.00;99.90
39315;DHT22;28703;44.412;11.918;2023-06-01T06:24:03;20.10;99.90
39315;DHT22;28703;44.412;11.918;2023-06-01T06:26:29;20.10;99.90
39315;DHT22;28703;44.412;11.918;2023-06-01T06:28:58;20.10;99.90
39315;DHT22;28703;44.412;11.918;2023-06-01T06:31:26;20.20;99.90
39315;DHT22;28703;44.412;11.918;2023-06-01T06:33:57;20.20;99.90
39315;DHT22;28703;44.412;11.918;2023-06-01T06:36:28;20.20;99.90
39315;DHT22;28703;44.412;11.918;2023-06-01T06:38:54;20.20;99.90
39315;DHT22;28703;44.412;11.918;2023-06-01T06:41:20;20.30;99.90
39315;DHT22;28703;44.412;11.918;2023-06-01T06:43:50;20.30;99.90
39315;DHT22;28703;44.412;11.918;2023-06-01T06:46:16;20.40;99.90
39315;DHT22;28703;44.412;11.918;2023-06-01T06:48:44;20.40;99.90
39315;DHT22;28703;44.412;11.918;2023-06-01T06:51:10;20.50;99.90
39315;DHT22;28703;44.412;11.918;2023-06-01T06:53:39;20.50;99.90
39315;DHT22;28703;44.412;11.918;2023-06-01T06:56:06;20.60;99.90
39315;DHT22;28703;44.412;11.918;2023-06-01T06:58:32;20.60;99.90
39315;DHT22;28703;44.412;11.918;2023-06-01T07:00:58;20.60;99.90
39315;DHT22;28703;44.412;11.918;2023-06-01T07:03:25;20.70;99.90
39315;DHT22;28703;44.412;11.918;2023-06-01T07:05:51;20.70;99.90
39315;DHT22;28703;44.412;11.918;2023-06-01T07:08:17;20.70;99.90
39315;DHT22;28703;44.412;11.918;2023-06-01T07:10:43;20.80;99.90
39315;DHT22;28703;44.412;11.918;2023-06-01T07:13:09;20.90;99.90
39315;DHT22;28703;44.412;11.918;2023-06-01T07:15:36;20.80;99.90
39315;DHT22;28703;44.412;11.918;2023-06-01T07:18:01;20.80;99.90
39315;DHT22;28703;44.412;11.918;2023-06-01T07:20:27;20.90;99.90
39315;DHT22;28703;44.412;11.918;2023-06-01T07:22:53;21.00;99.90
39315;DHT22;28703;44.412;11.918;2023-06-01T07:25:19;21.00;99.90
39315;DHT22;28703;44.412;11.918;2023-06-01T07:27:48;21.10;99.90
39315;DHT22;28703;44.412;11.918;2023-06-01T07:30:15;21.20;99.90
39315;DHT22;28703;44.412;11.918;2023-06-01T07:32:42;21.30;99.90
39315;DHT22;28703;44.412;11.918;2023-06-01T07:35:09;21.30;99.90
39315;DHT22;28703;44.412;11.918;2023-06-01T07:37:35;21.40;99.90
39315;DHT22;28703;44.412;11.918;2023-06-01T07:40:01;21.40;99.90
39315;DHT22;28703;44.412;11.918;2023-06-01T07:42:29;21.40;99.90
39315;DHT22;28703;44.412;11.918;2023-06-01T07:44:57;21.50;99.90
39315;DHT22;28703;44.412;11.918;2023-06-01T07:47:23;21.50;99.90
39315;DHT22;28703;44.412;11.918;2023-06-01T07:49:51;21.60;99.90
39315;DHT22;28703;44.412;11.918;2023-06-01T07:52:17;21.60;99.90
39315;DHT22;28703;44.412;11.918;2023-06-01T07:54:43;21.60;99.90
39315;DHT22;28703;44.412;11.918;2023-06-01T07:57:09;21.70;99.90
39315;DHT22;28703;44.412;11.918;2023-06-01T07:59:36;21.70;99.90
39315;DHT22;28703;44.412;11.918;2023-06-01T08:02:02;21.70;99.90
39315;DHT22;28703;44.412;11.918;2023-06-01T08:04:28;21.80;99.90
39315;DHT22;28703;44.412;11.918;2023-06-01T08:06:59;21.80;99.90
39315;DHT22;28703;44.412;11.918;2023-06-01T08:09:25;21.90;99.90
39315;DHT22;28703;44.412;11.918;2023-06-01T08:11:53;21.90;99.90
39315;DHT22;28703;44.412;11.918;2023-06-01T08:14:20;21.90;99.90
39315;DHT22;28703;44.412;11.918;2023-06-01T08:16:46;22.00;99.90
39315;DHT22;28703;44.412;11.918;2023-06-01T08:19:12;22.00;99.90
39315;DHT22;28703;44.412;11.918;2023-06-01T08:21:41;22.10;99.80
39315;DHT22;28703;44.412;11.918;2023-06-01T08:24:10;22.10;99.60
39315;DHT22;28703;44.412;11.918;2023-06-01T08:26:40;22.20;99.40
39315;DHT22;28703;44.412;11.918;2023-06-01T08:29:06;22.20;99.60
39315;DHT22;28703;44.412;11.918;2023-06-01T08:31:32;22.30;99.50
39315;DHT22;28703;44.412;11.918;2023-06-01T08:33:58;22.30;99.20
39315;DHT22;28703;44.412;11.918;2023-06-01T08:36:24;22.40;99.30
39315;DHT22;28703;44.412;11.918;2023-06-01T08:38:54;22.40;99.00
39315;DHT22;28703;44.412;11.918;2023-06-01T08:41:48;22.50;99.00
39315;DHT22;28703;44.412;11.918;2023-06-01T08:44:19;22.50;98.30
39315;DHT22;28703;44.412;11.918;2023-06-01T08:46:49;22.50;98.50
39315;DHT22;28703;44.412;11.918;2023-06-01T08:49:19;22.60;98.50
39315;DHT22;28703;44.412;11.918;2023-06-01T08:51:48;22.60;98.50
39315;DHT22;28703;44.412;11.918;2023-06-01T08:54:15;22.60;98.30
39315;DHT22;28703;44.412;11.918;2023-06-01T08:56:41;22.70;98.20
39315;DHT22;28703;44.412;11.918;2023-06-01T08:59:11;22.70;98.00
39315;DHT22;28703;44.412;11.918;2023-06-01T09:01:41;22.80;97.70
39315;DHT22;28703;44.412;11.918;2023-06-01T09:04:11;22.80;97.70
39315;DHT22;28703;44.412;11.918;2023-06-01T09:06:42;22.90;97.60
39315;DHT22;28703;44.412;11.918;2023-06-01T09:09:11;22.90;97.60
39315;DHT22;28703;44.412;11.918;2023-06-01T09:11:40;22.90;97.80
39315;DHT22;28703;44.412;11.918;2023-06-01T09:14:24;23.00;97.80
39315;DHT22;28703;44.412;11.918;2023-06-01T09:16:56;23.10;97.50
39315;DHT22;28703;44.412;11.918;2023-06-01T09:19:22;23.10;97.50
39315;DHT22;28703;44.412;11.918;2023-06-01T09:21:58;23.10;97.50
39315;DHT22;28703;44.412;11.918;2023-06-01T09:24:27;23.20;97.00
39315;DHT22;28703;44.412;11.918;2023-06-01T09:29:56;23.20;96.80
39315;DHT22;28703;44.412;11.918;2023-06-01T09:32:25;23.20;96.90
39315;DHT22;28703;44.412;11.918;2023-06-01T09:34:54;23.30;96.80
39315;DHT22;28703;44.412;11.918;2023-06-01T09:37:22;23.40;96.70
39315;DHT22;28703;44.412;11.918;2023-06-01T09:39:48;23.40;96.60
39315;DHT22;28703;44.412;11.918;2023-06-01T09:42:14;23.50;96.50
39315;DHT22;28703;44.412;11.918;2023-06-01T09:44:42;23.60;96.30
39315;DHT22;28703;44.412;11.918;2023-06-01T09:47:12;23.60;96.30
39315;DHT22;28703;44.412;11.918;2023-06-01T09:49:40;23.70;96.20
39315;DHT22;28703;44.412;11.918;2023-06-01T09:54:49;23.70;95.60
39315;DHT22;28703;44.412;11.918;2023-06-01T09:57:35;23.70;95.60
39315;DHT22;28703;44.412;11.918;2023-06-01T10:01:10;23.70;95.60
39315;DHT22;28703;44.412;11.918;2023-06-01T10:04:44;23.80;95.80
39315;DHT22;28703;44.412;11.918;2023-06-01T10:12:01;23.90;95.40
39315;DHT22;28703;44.412;11.918;2023-06-01T10:14:44;24.00;95.20
39315;DHT22;28703;44.412;11.918;2023-06-01T10:17:24;24.00;95.00
39315;DHT22;28703;44.412;11.918;2023-06-01T10:19:50;24.00;94.90
39315;DHT22;28703;44.412;11.918;2023-06-01T10:22:17;24.10;95.00
39315;DHT22;28703;44.412;11.918;2023-06-01T10:24:43;24.20;95.00
39315;DHT22;28703;44.412;11.918;2023-06-01T10:29:49;24.40;94.60
39315;DHT22;28703;44.412;11.918;2023-06-01T10:35:03;24.60;94.40
39315;DHT22;28703;44.412;11.918;2023-06-01T10:37:33;24.60;95.00
39315;DHT22;28703;44.412;11.918;2023-06-01T10:42:47;24.80;93.80
39315;DHT22;28703;44.412;11.918;2023-06-01T10:45:39;24.80;94.00
39315;DHT22;28703;44.412;11.918;2023-06-01T10:48:17;24.90;93.70
39315;DHT22;28703;44.412;11.918;2023-06-01T10:51:22;24.80;93.40
39315;DHT22;28703;44.412;11.918;2023-06-01T10:53:52;24.80;93.60
39315;DHT22;28703;44.412;11.918;2023-06-01T10:56:25;24.90;93.40
39315;DHT22;28703;44.412;11.918;2023-06-01T11:01:40;25.20;93.30
39315;DHT22;28703;44.412;11.918;2023-06-01T11:04:34;25.20;93.60
39315;DHT22;28703;44.412;11.918;2023-06-01T11:07:37;25.50;93.80
39315;DHT22;28703;44.412;11.918;2023-06-01T11:10:07;25.60;93.00
39315;DHT22;28703;44.412;11.918;2023-06-01T11:13:13;25.60;93.10
39315;DHT22;28703;44.412;11.918;2023-06-01T11:18:51;25.50;92.80
39315;DHT22;28703;44.412;11.918;2023-06-01T11:21:41;25.50;93.20
39315;DHT22;28703;44.412;11.918;2023-06-01T11:24:15;25.50;92.80
39315;DHT22;28703;44.412;11.918;2023-06-01T11:26:49;25.50;93.10
39315;DHT22;28703;44.412;11.918;2023-06-01T11:29:25;25.50;93.10
39315;DHT22;28703;44.412;11.918;2023-06-01T11:32:00;25.50;92.90
39315;DHT22;28703;44.412;11.918;2023-06-01T11:38:15;25.70;94.00
39315;DHT22;28703;44.412;11.918;2023-06-01T11:51:17;26.10;92.10
39315;DHT22;28703;44.412;11.918;2023-06-01T11:54:30;26.20;92.40
39315;DHT22;28703;44.412;11.918;2023-06-01T11:59:38;26.10;92.30
39315;DHT22;28703;44.412;11.918;2023-06-01T12:02:31;26.10;91.60
39315;DHT22;28703;44.412;11.918;2023-06-01T12:05:01;26.00;91.50
39315;DHT22;28703;44.412;11.918;2023-06-01T12:07:42;25.90;92.00
39315;DHT22;28703;44.412;11.918;2023-06-01T12:10:13;25.90;92.10
39315;DHT22;28703;44.412;11.918;2023-06-01T12:12:44;25.90;92.30
39315;DHT22;28703;44.412;11.918;2023-06-01T12:15:13;25.90;92.40
39315;DHT22;28703;44.412;11.918;2023-06-01T12:17:50;25.90;92.40
39315;DHT22;28703;44.412;11.918;2023-06-01T12:20:45;25.90;92.40
39315;DHT22;28703;44.412;11.918;2023-06-01T12:28:18;25.90;92.40
39315;DHT22;28703;44.412;11.918;2023-06-01T12:30:45;25.90;92.40
39315;DHT22;28703;44.412;11.918;2023-06-01T12:33:34;26.20;92.40
39315;DHT22;28703;44.412;11.918;2023-06-01T12:36:01;26.40;91.90
39315;DHT22;28703;44.412;11.918;2023-06-01T12:38:27;26.50;92.00
39315;DHT22;28703;44.412;11.918;2023-06-01T12:41:10;26.70;92.60
39315;DHT22;28703;44.412;11.918;2023-06-01T12:43:50;27.00;93.10
39315;DHT22;28703;44.412;11.918;2023-06-01T12:46:23;27.20;92.90
39315;DHT22;28703;44.412;11.918;2023-06-01T12:49:10;27.40;92.90
39315;DHT22;28703;44.412;11.918;2023-06-01T12:51:37;27.60;92.30
39315;DHT22;28703;44.412;11.918;2023-06-01T12:54:06;27.70;91.80
39315;DHT22;28703;44.412;11.918;2023-06-01T12:56:32;27.70;91.80
39315;DHT22;28703;44.412;11.918;2023-06-01T12:58:58;27.60;91.80
39315;DHT22;28703;44.412;11.918;2023-06-01T13:01:24;27.50;91.00
39315;DHT22;28703;44.412;11.918;2023-06-01T13:03:53;27.30;90.70
39315;DHT22;28703;44.412;11.918;2023-06-01T13:06:21;27.20;91.00
39315;DHT22;28703;44.412;11.918;2023-06-01T13:08:47;27.20;91.10
39315;DHT22;28703;44.412;11.918;2023-06-01T13:11:14;27.30;91.50
39315;DHT22;28703;44.412;11.918;2023-06-01T13:13:41;27.40;91.40
39315;DHT22;28703;44.412;11.918;2023-06-01T13:16:07;27.50;90.90
39315;DHT22;28703;44.412;11.918;2023-06-01T13:18:35;27.60;90.40
39315;DHT22;28703;44.412;11.918;2023-06-01T13:21:01;27.80;90.50
39315;DHT22;28703;44.412;11.918;2023-06-01T13:23:28;28.00;90.80
39315;DHT22;28703;44.412;11.918;2023-06-01T13:25:54;28.20;91.20
39315;DHT22;28703;44.412;11.918;2023-06-01T13:28:20;28.40;91.30
39315;DHT22;28703;44.412;11.918;2023-06-01T13:30:46;28.50;90.80
39315;DHT22;28703;44.412;11.918;2023-06-01T13:33:13;28.60;90.60
39315;DHT22;28703;44.412;11.918;2023-06-01T13:35:39;28.70;90.60
39315;DHT22;28703;44.412;11.918;2023-06-01T13:38:05;28.70;90.50
39315;DHT22;28703;44.412;11.918;2023-06-01T13:40:31;28.80;90.30
39315;DHT22;28703;44.412;11.918;2023-06-01T13:42:58;28.80;90.20
39315;DHT22;28703;44.412;11.918;2023-06-01T13:45:24;28.90;90.20
39315;DHT22;28703;44.412;11.918;2023-06-01T13:47:53;29.00;89.70
39315;DHT22;28703;44.412;11.918;2023-06-01T13:50:20;29.10;90.10
39315;DHT22;28703;44.412;11.918;2023-06-01T13:52:47;29.30;90.10
39315;DHT22;28703;44.412;11.918;2023-06-01T13:55:13;29.40;90.20
39315;DHT22;28703;44.412;11.918;2023-06-01T13:57:44;29.60;90.10
39315;DHT22;28703;44.412;11.918;2023-06-01T14:00:14;29.70;89.50
39315;DHT22;28703;44.412;11.918;2023-06-01T14:02:46;29.80;89.40
39315;DHT22;28703;44.412;11.918;2023-06-01T14:05:13;29.90;88.60
39315;DHT22;28703;44.412;11.918;2023-06-01T14:07:44;30.10;87.80
39315;DHT22;28703;44.412;11.918;2023-06-01T14:10:11;30.10;86.60
39315;DHT22;28703;44.412;11.918;2023-06-01T14:12:40;30.20;86.90
39315;DHT22;28703;44.412;11.918;2023-06-01T14:15:07;30.30;87.00
39315;DHT22;28703;44.412;11.918;2023-06-01T14:17:33;30.40;87.10
39315;DHT22;28703;44.412;11.918;2023-06-01T14:20:02;30.50;87.00
39315;DHT22;28703;44.412;11.918;2023-06-01T14:22:31;30.60;86.70
39315;DHT22;28703;44.412;11.918;2023-06-01T14:24:57;30.60;86.40
39315;DHT22;28703;44.412;11.918;2023-06-01T14:27:27;30.70;86.20
39315;DHT22;28703;44.412;11.918;2023-06-01T14:29:56;30.80;85.70
39315;DHT22;28703;44.412;11.918;2023-06-01T14:32:22;30.80;85.60
39315;DHT22;28703;44.412;11.918;2023-06-01T14:34:50;30.80;85.60
39315;DHT22;28703;44.412;11.918;2023-06-01T14:37:29;30.70;84.90
39315;DHT22;28703;44.412;11.918;2023-06-01T14:39:55;30.50;84.20
39315;DHT22;28703;44.412;11.918;2023-06-01T14:42:28;30.40;86.30
39315;DHT22;28703;44.412;11.918;2023-06-01T14:44:55;30.50;86.30
39315;DHT22;28703;44.412;11.918;2023-06-01T14:47:21;30.50;86.90
39315;DHT22;28703;44.412;11.918;2023-06-01T14:49:47;30.60;87.00
39315;DHT22;28703;44.412;11.918;2023-06-01T14:52:18;30.80;85.90
39315;DHT22;28703;44.412;11.918;2023-06-01T14:54:46;30.90;85.10
39315;DHT22;28703;44.412;11.918;2023-06-01T14:57:17;31.10;84.40
39315;DHT22;28703;44.412;11.918;2023-06-01T14:59:47;31.20;84.20
39315;DHT22;28703;44.412;11.918;2023-06-01T15:02:16;31.40;83.80
39315;DHT22;28703;44.412;11.918;2023-06-01T15:04:44;31.50;83.50
39315;DHT22;28703;44.412;11.918;2023-06-01T15:07:16;31.70;83.10
39315;DHT22;28703;44.412;11.918;2023-06-01T15:09:42;31.80;82.30
39315;DHT22;28703;44.412;11.918;2023-06-01T15:12:33;31.80;83.00
39315;DHT22;28703;44.412;11.918;2023-06-01T15:14:59;32.00;82.80
39315;DHT22;28703;44.412;11.918;2023-06-01T15:17:28;32.00;82.80
39315;DHT22;28703;44.412;11.918;2023-06-01T15:19:57;32.20;83.50
39315;DHT22;28703;44.412;11.918;2023-06-01T15:22:23;32.30;83.10
39315;DHT22;28703;44.412;11.918;2023-06-01T15:24:54;32.50;83.30
39315;DHT22;28703;44.412;11.918;2023-06-01T15:27:30;32.60;82.80
39315;DHT22;28703;44.412;11.918;2023-06-01T15:29:59;32.80;83.00
39315;DHT22;28703;44.412;11.918;2023-06-01T15:32:28;32.90;82.80
39315;DHT22;28703;44.412;11.918;2023-06-01T15:34:54;33.10;82.20
39315;DHT22;28703;44.412;11.918;2023-06-01T15:37:20;33.20;81.80
39315;DHT22;28703;44.412;11.918;2023-06-01T15:39:46;33.40;81.10
39315;DHT22;28703;44.412;11.918;2023-06-01T15:42:12;33.60;80.90
39315;DHT22;28703;44.412;11.918;2023-06-01T15:44:40;33.80;81.10
39315;DHT22;28703;44.412;11.918;2023-06-01T15:47:07;33.90;81.30
39315;DHT22;28703;44.412;11.918;2023-06-01T15:49:38;34.10;82.50
39315;DHT22;28703;44.412;11.918;2023-06-01T15:52:05;34.30;83.20
39315;DHT22;28703;44.412;11.918;2023-06-01T15:54:34;34.40;83.90
39315;DHT22;28703;44.412;11.918;2023-06-01T15:57:01;34.60;84.60
39315;DHT22;28703;44.412;11.918;2023-06-01T15:59:29;34.80;84.80
39315;DHT22;28703;44.412;11.918;2023-06-01T16:01:55;34.80;84.50
39315;DHT22;28703;44.412;11.918;2023-06-01T16:04:22;35.00;84.10
39315;DHT22;28703;44.412;11.918;2023-06-01T16:06:48;35.00;84.00
39315;DHT22;28703;44.412;11.918;2023-06-01T16:09:17;35.10;84.70
39315;DHT22;28703;44.412;11.918;2023-06-01T16:11:43;35.20;84.70
39315;DHT22;28703;44.412;11.918;2023-06-01T16:35:13;34.20;82.50
39315;DHT22;28703;44.412;11.918;2023-06-01T16:37:40;33.90;83.20
39315;DHT22;28703;44.412;11.918;2023-06-01T16:40:06;33.80;83.30
39315;DHT22;28703;44.412;11.918;2023-06-01T16:42:32;33.80;83.60
39315;DHT22;28703;44.412;11.918;2023-06-01T16:44:59;33.80;83.80
39315;DHT22;28703;44.412;11.918;2023-06-01T16:47:27;33.80;83.80